• Join FlightAware (Why Join?)
  • Login
  • US Flag 
09:32PM EDT


 

Airport Tracker/Info


-or-


 

Live Flight TrackerFlight Track Log ✈ UAL4588 ✈ 27-Oct-2013 ✈ KGPT - KIAH

Flight Track Log - Related Links

Times and Time Zones

All times are in EDT time to prevent confusion due to time zone crossing. See the UAL4588 flight status page for this flight to view local times or setup timezone preferences in your user account.

Time Position Orientation Groundspeed Altitude Reporting Facility
EDT Latitude Longitude Course Direction KTS MPH feet Rate Location/Type
07:41AM 30.3811 -89.1133 284° West 238 274 2,700  Level Houston Center
07:42AM 30.4000 -89.1875 286° West 238 274 5,100 2,400 Climbing Houston Center
07:43AM 30.3870 -89.5195 286° West  Level Estimated
07:43AM 30.4217 -89.2658 288° West 251 289 7,700  Level Houston Center
07:44AM 30.3817 -89.6319 288° West  Level Estimated
07:44AM 30.4431 -89.3411 288° West 249 287 10,300  Level Houston Center
07:45AM 30.4474 -89.7147 313° West  Level FlightAware Approximate
07:45AM 30.4639 -89.4189 287° West 250 288 11,800  Level Houston Center
07:46AM 30.4405 -89.8273 284° West  Level Estimated
07:46AM 30.4886 -89.5106 287° West 287 330 12,500  Level Houston Center
07:47AM 30.5233 -89.6361 288° West 335 386 13,700 1,140 Climbing Houston Center
07:48AM 30.5528 -89.7414 288° West 344 396 14,900 1,140 Climbing Houston Center
07:49AM 30.5803 -89.8494 286° West 352 405 16,000 1,140 Climbing Houston Center
07:50AM 30.6094 -89.9572 287° West 353 406 17,200 1,080 Climbing Houston Center
07:51AM 30.6375 -90.0650 287° West 351 404 18,200 1,080 Climbing Houston Center
07:52AM 30.6667 -90.1733 287° West 353 406 19,400 1,080 Climbing Houston Center
07:53AM 30.6958 -90.2844 287° West 359 413 20,500 1,140 Climbing Houston Center
07:54AM 30.7244 -90.3961 287° West 362 417 21,700 1,080 Climbing Houston Center
07:55AM 30.7547 -90.5103 287° West 371 427 22,700 900 Climbing Houston Center
07:56AM 30.7850 -90.6264 287° West 375 432 23,600 600 Climbing Houston Center
07:57AM 30.8164 -90.7444 287° West 384 442 24,000 180 Climbing Houston Center
07:58AM 30.8475 -90.8697 286° West 402 463 24,000  Level Houston Center
07:59AM 30.8867 -91.0214 287° West 407 468 24,000  Level Houston Center
08:00AM 30.9181 -91.1428 287° West 403 464 24,000  Level Houston Center
08:01AM 30.9119 -91.2719 267° West 408 470 24,000  Level Houston Center
08:02AM 30.8847 -91.3953 256° West 396 456 24,000  Level Houston Center
08:03AM 30.8586 -91.5197 256° West 395 455 24,000  Level Houston Center
08:04AM 30.8292 -91.6503 255° West 408 470 24,000  Level Houston Center
08:05AM 30.8008 -91.7806 256° West 413 475 24,000  Level Houston Center
08:06AM 30.7708 -91.9114 255° West 416 479 24,000  Level Houston Center
08:07AM 30.7414 -92.0447 256° West 420 483 24,000  Level Houston Center
08:08AM 30.7111 -92.1750 255° West 419 482 24,000  Level Houston Center
08:09AM 30.6822 -92.3028 255° West 412 474 24,000  Level Houston Center
08:10AM 30.6550 -92.4250 256° West 396 456 24,000  Level Houston Center
08:11AM 30.6281 -92.5450 255° West 386 444 24,000  Level Houston Center
08:12AM 30.6000 -92.6619 254° West 387 445 24,000  Level Houston Center
08:13AM 30.5728 -92.7828 255° West 389 448 24,000  Level Houston Center
08:14AM 30.5453 -92.9025 255° West 386 444 24,000  Level Houston Center
08:16AM 30.5114 -93.0458 255° West 384 442 24,000  Level Houston Center
08:17AM 30.4842 -93.1647 255° West 382 440 24,000  Level Houston Center
08:18AM 30.4572 -93.2792 255° West 374 430 24,000  Level Houston Center
08:19AM 30.4308 -93.3928 255° West 369 425 24,000  Level Houston Center
08:20AM 30.4022 -93.5156 255° West 368 423 24,000  Level Houston Center
08:21AM 30.3775 -93.6206 255° West 383 441 24,000 -360 Level Houston Center
08:22AM 30.3500 -93.7381 255° West 382 440 23,300 -1,560 Descending Houston Center
08:23AM 30.3242 -93.8464 255° West 357 411 20,900 -2,520 Descending Houston Center
08:24AM 30.2931 -93.9747 254° West 347 399 18,300 -2,340 Descending Houston Center
08:24AM 30.2742 -94.0519 254° West 340 391 16,900 -1,980 Descending Houston Center
08:25AM 30.2681 -94.0792 255° West 340 391 16,300 -2,100 Descending Houston Center
08:25AM 30.2486 -94.1522 253° West 334 384 14,800 -2,280 Descending Houston Center
08:26AM 30.2433 -94.1819 258° West 334 384 14,000 -1,920 Descending Houston Center
08:26AM 30.2233 -94.2572 253° West 323 372 12,900 -1,500 Descending Houston Center
08:27AM 30.2197 -94.2808 260° West 321 369 12,500 -840 Descending Houston Center
08:27AM 30.2011 -94.3497 253° West 310 357 12,100 -600 Descending Houston Center
08:28AM 30.1964 -94.3775 259° West 314 361 11,900  Descending Houston Center
08:28AM 30.1808 -94.4658 259° West 314 361 12,100  Climbing Houston Center
08:29AM 30.1794 -94.4769 262° West 316 364 11,900 -120 Descending Houston Center
08:29AM 30.1647 -94.5575 258° West 320 368 12,000 60 Climbing Houston Center
08:30AM 30.1619 -94.5822 263° West 318 366 12,000 60 Level Houston Center
08:30AM 30.1472 -94.6589 257° West 315 362 12,100  Climbing Houston Center
08:31AM 30.1453 -94.6803 264° West 313 360 12,000  Descending Houston Center
08:31AM 30.1311 -94.7528 257° West 303 349 12,100  Climbing Houston Center
08:32AM 30.1289 -94.7758 264° West 306 352 12,000  Descending Houston Center
08:32AM 30.1150 -94.8492 258° West 306 352 12,100  Climbing Houston Center
08:33AM 30.1114 -94.8719 260° West 306 352 12,000 -660 Descending Houston Center
08:33AM 30.1044 -94.9375 263° West 295 339 11,500 -1,020 Descending Houston Center
08:34AM 30.1075 -94.9667 277° West 298 343 11,000 -1,500 Descending Houston Center
08:34AM 30.1056 -95.0386 268° West 257 296 9,900 -1,380 Descending Houston Center
08:35AM 30.1069 -95.0506 278° West 275 316 9,600 -1,440 Descending Houston Center
08:36AM 30.1075 -95.1278 270° West 253 291 8,000 -1,680 Descending Houston Center
08:36AM 30.1053 -95.1908 268° West 233 268 6,800 -1,380 Descending Houston Center
08:37AM 30.1081 -95.2011 287° West 237 273 6,600 -720 Descending Houston Center
08:38AM 30.1072 -95.2583 269° West 203 234 6,100 -600 Descending Houston Center
08:38AM 30.1081 -95.2689 275° West 218 251 6,000  Descending Houston Center
08:39AM 30.1075 -95.3308 269° West 224 258 6,100  Climbing Houston Center
08:39AM 30.1072 -95.3522 269° West 217 250 6,000 -600 Descending Houston Center
08:41AM 30.1056 -95.4711 269° West 209 241 5,000 -780 Descending Houston Center
08:41AM 30.1061 -95.4886 272° West 211 243 4,500 -1,560 Descending Houston Center
08:41AM 30.1050 -95.5339 268° West 215 247 3,600 -1,200 Descending Houston Center
08:42AM 30.1067 -95.5556 275° West 212 244 3,300 -540 Descending Houston Center
08:43AM 30.0597 -95.5956 216° Southwest 240 276 2,900 -120 Descending Houston Center
08:44AM 30.0069 -95.5889 174° South 204 235 3,100 60 Climbing Houston Center
08:44AM 30.0053 -95.5828 107° East 227 261 3,000 -120 Descending Houston Center
08:45AM 29.9925 -95.5208 103° East 192 221 3,000 -240 Level Houston Center
08:45AM 29.9928 -95.5208 360° North 203 234 2,800 -900 Descending Houston Center
08:46AM 29.9925 -95.4750 90° East 159 183 2,300 -840 Descending Houston Center
08:46AM 29.9944 -95.4644 78° East 184 212 2,000 -840 Descending Houston Center
08:47AM 29.9928 -95.4314 93° East 113 130 1,500 -840 Descending Houston Center
08:47AM 29.9942 -95.4231 79° East 156 180 1,200 -600 Descending Houston Center
08:48AM 29.9933 -95.3903 92° East 130 150 900 -540 Descending Houston Center
08:48AM 29.9936 -95.3847 87° East 129 148 700 -480 Descending Houston Center
08:49AM 29.9931 -95.3381 91° East 126 145 300 -420 Descending Houston Center